Time;durP1;ratioP1;P1;durP2;ratioP2;P2;SDS_P1;SDS_P2;PMS_P1;PMS_P2;Temp;Humidity;BMP_temperature;BMP_pressure;BME280_temperature;BME280_humidity;BME280_pressure;Samples;Min_cycle;Max_cycle;Signal;HPM_P1;HPM_P2
2022/10/29 00:00:37;;;;;;;;;;;14.10;99.90;;;;;;8399226;28;20007;-75
2022/10/29 00:04:38;;;;;;;;;;;14.10;99.90;;;;;;8399206;28;20038;-77
2022/10/29 00:08:40;;;;;;;;;;;14.10;99.90;;;;;;8383808;28;19937;-77
2022/10/29 00:12:42;;;;;;;;;;;14.10;99.90;;;;;;8402411;28;19929;-77
2022/10/29 00:16:44;;;;;;;;;;;14.00;99.90;;;;;;8405207;28;19927;-77
2022/10/29 00:20:47;;;;;;;;;;;14.00;99.90;;;;;;8391357;28;19928;-77
2022/10/29 00:24:48;;;;;;;;;;;14.00;99.90;;;;;;8401104;28;19931;-76
2022/10/29 00:28:51;;;;;;;;;;;14.00;99.90;;;;;;8392792;28;19931;-77
2022/10/29 00:32:52;;;;;;;;;;;14.00;99.90;;;;;;8386549;28;19924;-77
2022/10/29 00:36:54;;;;;;;;;;;14.10;99.90;;;;;;8396881;28;19924;-77
2022/10/29 00:40:56;;;;;;;;;;;14.10;99.90;;;;;;8393774;28;20352;-77
2022/10/29 00:44:57;;;;;;;;;;;14.10;99.90;;;;;;8392884;28;19935;-77
2022/10/29 00:48:59;;;;;;;;;;;14.10;99.90;;;;;;8398701;28;19928;-77
2022/10/29 00:53:01;;;;;;;;;;;14.00;99.90;;;;;;8377769;28;19924;-77
2022/10/29 00:57:06;;;;;;;;;;;14.00;99.90;;;;;;8388286;28;19925;-77
2022/10/29 01:01:08;;;;;;;;;;;14.00;99.90;;;;;;8398780;28;20016;-77
2022/10/29 01:05:11;;;;;;;;;;;13.90;99.90;;;;;;8393889;28;19951;-77
2022/10/29 01:09:13;;;;;;;;;;;13.90;99.90;;;;;;8387054;28;19933;-77
2022/10/29 01:13:14;;;;;;;;;;;13.90;99.90;;;;;;8380485;28;19966;-77
2022/10/29 01:17:26;;;;;;;;;;;13.80;99.90;;;;;;8400844;28;19967;-77
2022/10/29 01:21:27;;;;;;;;;;;13.80;99.90;;;;;;8392773;28;19931;-77
2022/10/29 01:25:48;;;;;;;;;;;13.70;99.90;;;;;;8399635;28;20348;-77
2022/10/29 01:30:03;;;;;;;;;;;13.70;99.90;;;;;;8399564;28;19924;-77
2022/10/29 01:34:10;;;;;;;;;;;13.60;99.90;;;;;;8394690;28;19947;-77
2022/10/29 01:38:14;;;;;;;;;;;13.60;99.90;;;;;;8398719;28;19934;-77
2022/10/29 01:42:36;;;;;;;;;;;13.60;99.90;;;;;;8399588;28;19989;-77
2022/10/29 01:46:44;;;;;;;;;;;13.50;99.90;;;;;;8386783;28;19924;-77
2022/10/29 01:50:48;;;;;;;;;;;13.50;99.90;;;;;;8400739;28;19982;-77
2022/10/29 01:54:50;;;;;;;;;;;13.40;99.90;;;;;;8366816;28;19924;-77
2022/10/29 01:58:53;;;;;;;;;;;13.40;99.90;;;;;;8394908;28;19931;-77
2022/10/29 02:03:10;;;;;;;;;;;13.40;99.90;;;;;;8398434;28;19924;-77
2022/10/29 02:07:20;;;;;;;;;;;13.40;99.90;;;;;;8397390;28;19924;-77
2022/10/29 02:11:40;;;;;;;;;;;13.40;99.90;;;;;;8389658;28;20260;-77
2022/10/29 02:15:44;;;;;;;;;;;13.40;99.90;;;;;;8381197;28;19959;-77
2022/10/29 02:19:46;;;;;;;;;;;13.50;99.90;;;;;;8390739;28;19935;-77
2022/10/29 02:23:48;;;;;;;;;;;13.50;99.90;;;;;;8396017;28;19931;-77
2022/10/29 02:27:49;;;;;;;;;;;13.60;99.90;;;;;;8395297;28;19970;-77
2022/10/29 02:31:51;;;;;;;;;;;13.60;99.90;;;;;;8395331;28;19928;-77
2022/10/29 02:35:52;;;;;;;;;;;13.60;99.90;;;;;;8383447;28;19924;-77
2022/10/29 02:39:54;;;;;;;;;;;13.60;99.90;;;;;;8396615;28;19927;-77
2022/10/29 02:43:56;;;;;;;;;;;13.60;99.90;;;;;;8386481;28;19928;-77
2022/10/29 02:47:58;;;;;;;;;;;13.60;99.90;;;;;;8394082;28;19924;-77
2022/10/29 02:51:59;;;;;;;;;;;13.60;99.90;;;;;;8385231;28;19986;-77
2022/10/29 02:56:01;;;;;;;;;;;13.60;99.90;;;;;;8394224;28;19991;-77
2022/10/29 03:00:03;;;;;;;;;;;13.60;99.90;;;;;;8389645;28;19931;-77
2022/10/29 03:04:05;;;;;;;;;;;13.60;99.90;;;;;;8396274;28;19925;-78
2022/10/29 03:08:07;;;;;;;;;;;13.50;99.90;;;;;;8392774;28;19939;-77
2022/10/29 03:12:08;;;;;;;;;;;13.50;99.90;;;;;;8381270;28;20018;-77
2022/10/29 03:16:10;;;;;;;;;;;13.50;99.90;;;;;;8392001;28;19924;-77
2022/10/29 03:20:11;;;;;;;;;;;13.50;99.90;;;;;;8370882;28;19931;-77
2022/10/29 03:24:13;;;;;;;;;;;13.50;99.90;;;;;;8395180;28;19946;-77
2022/10/29 03:28:15;;;;;;;;;;;13.50;99.90;;;;;;8395431;28;20257;-77
2022/10/29 03:32:16;;;;;;;;;;;13.50;99.90;;;;;;8404577;28;19934;-77
2022/10/29 03:36:18;;;;;;;;;;;13.50;99.90;;;;;;8395973;28;19928;-77
2022/10/29 03:40:19;;;;;;;;;;;13.40;99.90;;;;;;8393538;28;19924;-77
2022/10/29 03:44:21;;;;;;;;;;;13.40;99.90;;;;;;8379918;28;20019;-77
2022/10/29 03:48:23;;;;;;;;;;;13.40;99.90;;;;;;8401664;28;20264;-77
2022/10/29 03:52:25;;;;;;;;;;;13.40;99.90;;;;;;8393165;28;19931;-77
2022/10/29 03:56:27;;;;;;;;;;;13.40;99.90;;;;;;8385981;28;19929;-77
2022/10/29 04:00:28;;;;;;;;;;;13.30;99.90;;;;;;8377668;28;19935;-77
2022/10/29 04:04:30;;;;;;;;;;;13.30;99.90;;;;;;8379088;28;19931;-77
2022/10/29 04:08:32;;;;;;;;;;;13.30;99.90;;;;;;8393891;28;19924;-77
2022/10/29 04:12:33;;;;;;;;;;;13.30;99.90;;;;;;8385942;28;19951;-77
2022/10/29 04:16:35;;;;;;;;;;;13.30;99.90;;;;;;8376011;28;19935;-77
2022/10/29 04:20:37;;;;;;;;;;;13.30;99.90;;;;;;8395958;28;19929;-77
2022/10/29 04:24:59;;;;;;;;;;;13.30;99.90;;;;;;8401200;28;19928;-77
2022/10/29 04:29:21;;;;;;;;;;;13.30;99.90;;;;;;8398193;28;19973;-77
2022/10/29 04:33:22;;;;;;;;;;;13.30;99.90;;;;;;8390308;28;20391;-77
2022/10/29 04:37:26;;;;;;;;;;;13.30;99.90;;;;;;8382155;28;19932;-77
2022/10/29 04:41:28;;;;;;;;;;;13.40;99.90;;;;;;8398602;28;20379;-77
2022/10/29 04:50:39;;;;;;;;;;;13.40;99.90;;;;;;8390260;28;19962;-77
2022/10/29 04:54:40;;;;;;;;;;;13.40;99.90;;;;;;8391037;28;19932;-77
2022/10/29 04:58:42;;;;;;;;;;;13.40;99.90;;;;;;8375064;28;19974;-77
2022/10/29 05:02:50;;;;;;;;;;;13.50;99.90;;;;;;8385745;28;19932;-76
2022/10/29 05:06:52;;;;;;;;;;;13.50;99.90;;;;;;8376711;28;19935;-76
2022/10/29 05:10:54;;;;;;;;;;;13.50;99.90;;;;;;8389785;28;19932;-77
2022/10/29 05:30:07;;;;;;;;;;;13.60;99.90;;;;;;8385263;28;19943;-77
2022/10/29 05:34:09;;;;;;;;;;;13.60;99.90;;;;;;8387275;28;19933;-77
2022/10/29 05:38:11;;;;;;;;;;;13.60;99.90;;;;;;8401954;28;19924;-77
2022/10/29 05:42:13;;;;;;;;;;;13.70;99.90;;;;;;8398660;28;20338;-77
2022/10/29 05:46:15;;;;;;;;;;;13.70;99.90;;;;;;8375474;28;19931;-77
2022/10/29 05:50:17;;;;;;;;;;;13.70;99.90;;;;;;8391877;28;19928;-77
2022/10/29 05:54:18;;;;;;;;;;;13.80;99.90;;;;;;8373416;28;19924;-77
2022/10/29 05:58:20;;;;;;;;;;;13.80;99.90;;;;;;8380663;28;19924;-77
2022/10/29 06:02:22;;;;;;;;;;;13.80;99.90;;;;;;8383879;28;19925;-77
2022/10/29 06:06:23;;;;;;;;;;;13.80;99.90;;;;;;8398503;28;19928;-77
2022/10/29 06:10:27;;;;;;;;;;;13.90;99.90;;;;;;8386527;28;19975;-77
2022/10/29 06:14:28;;;;;;;;;;;13.90;99.90;;;;;;8375950;28;19928;-77
2022/10/29 06:18:30;;;;;;;;;;;14.00;99.90;;;;;;8372039;28;19931;-77
2022/10/29 06:22:32;;;;;;;;;;;14.00;99.90;;;;;;8364746;28;19943;-76
2022/10/29 06:26:33;;;;;;;;;;;14.00;99.90;;;;;;8369743;28;20360;-76
2022/10/29 06:30:35;;;;;;;;;;;14.00;99.90;;;;;;8388648;28;19935;-77
2022/10/29 06:34:37;;;;;;;;;;;14.10;99.90;;;;;;8393850;28;20268;-77
2022/10/29 06:38:38;;;;;;;;;;;14.10;99.90;;;;;;8389700;28;19928;-77
2022/10/29 06:42:40;;;;;;;;;;;14.10;99.90;;;;;;8394131;28;20284;-77
2022/10/29 06:46:42;;;;;;;;;;;14.20;99.90;;;;;;8391067;28;20011;-77
2022/10/29 06:50:43;;;;;;;;;;;14.20;99.90;;;;;;8393119;28;19931;-77
2022/10/29 06:54:45;;;;;;;;;;;14.20;99.90;;;;;;8388196;28;20038;-77
2022/10/29 06:58:46;;;;;;;;;;;14.20;99.90;;;;;;8369598;28;19935;-77
2022/10/29 07:02:48;;;;;;;;;;;14.20;99.90;;;;;;8386806;28;19929;-77
2022/10/29 07:06:49;;;;;;;;;;;14.30;99.90;;;;;;8389982;28;19928;-77
2022/10/29 07:10:52;;;;;;;;;;;14.30;99.90;;;;;;8371233;28;20295;-77
2022/10/29 07:14:54;;;;;;;;;;;14.30;99.90;;;;;;8392107;28;19925;-77
2022/10/29 07:18:56;;;;;;;;;;;14.40;99.90;;;;;;8381755;28;19932;-76
2022/10/29 07:23:00;;;;;;;;;;;14.50;99.90;;;;;;8396820;28;19991;-77
2022/10/29 07:27:01;;;;;;;;;;;14.50;99.90;;;;;;8386961;28;20011;-77
2022/10/29 07:31:03;;;;;;;;;;;14.60;99.90;;;;;;8388336;28;19932;-77
2022/10/29 07:35:05;;;;;;;;;;;14.70;99.90;;;;;;8373890;28;20015;-77
2022/10/29 07:39:06;;;;;;;;;;;14.80;99.90;;;;;;8399842;28;19955;-77
2022/10/29 07:43:08;;;;;;;;;;;14.90;99.90;;;;;;8381632;28;19924;-77
2022/10/29 07:47:10;;;;;;;;;;;15.00;99.90;;;;;;8395719;28;19950;-77
2022/10/29 07:51:11;;;;;;;;;;;15.10;99.90;;;;;;8392962;28;20023;-77
2022/10/29 07:55:13;;;;;;;;;;;15.20;99.90;;;;;;8389446;28;19928;-77
2022/10/29 07:59:16;;;;;;;;;;;15.30;99.90;;;;;;8399753;28;20303;-77
2022/10/29 08:03:18;;;;;;;;;;;15.40;99.90;;;;;;8396397;28;20015;-77
2022/10/29 08:07:19;;;;;;;;;;;15.40;99.90;;;;;;8392361;28;19947;-77
2022/10/29 08:11:21;;;;;;;;;;;15.50;99.90;;;;;;8392607;28;20624;-77
2022/10/29 08:15:23;;;;;;;;;;;15.50;99.90;;;;;;8397220;28;20458;-77
2022/10/29 08:19:25;;;;;;;;;;;15.70;99.90;;;;;;8399535;28;19928;-77
2022/10/29 08:23:26;;;;;;;;;;;15.80;99.90;;;;;;8401929;28;19925;-78
2022/10/29 08:27:28;;;;;;;;;;;16.00;99.90;;;;;;8399782;28;19928;-77
2022/10/29 08:31:29;;;;;;;;;;;16.20;99.90;;;;;;8398387;28;19924;-77
2022/10/29 08:35:32;;;;;;;;;;;16.30;99.90;;;;;;8390014;28;19924;-77
2022/10/29 08:39:33;;;;;;;;;;;16.50;99.90;;;;;;8398367;28;19971;-77
2022/10/29 08:43:38;;;;;;;;;;;16.60;99.90;;;;;;8391621;28;19931;-77
2022/10/29 08:47:54;;;;;;;;;;;16.70;99.90;;;;;;8396407;28;19925;-77
2022/10/29 08:51:59;;;;;;;;;;;16.80;99.90;;;;;;8403972;28;19924;-77
2022/10/29 08:56:03;;;;;;;;;;;17.00;99.90;;;;;;8371603;28;19932;-77
2022/10/29 09:00:06;;;;;;;;;;;17.10;99.90;;;;;;8398014;28;19932;-77
2022/10/29 09:04:28;;;;;;;;;;;17.10;99.90;;;;;;8395443;28;19924;-77
2022/10/29 09:08:37;;;;;;;;;;;17.10;99.90;;;;;;8411293;28;20371;-77
2022/10/29 09:12:46;;;;;;;;;;;17.10;99.90;;;;;;8372953;28;19938;-77
2022/10/29 09:16:55;;;;;;;;;;;17.10;99.90;;;;;;8385899;28;20398;-77
2022/10/29 09:21:00;;;;;;;;;;;17.20;99.90;;;;;;8396713;28;19931;-77
2022/10/29 09:25:10;;;;;;;;;;;17.20;99.90;;;;;;8401838;28;19965;-77
2022/10/29 09:29:31;;;;;;;;;;;17.20;99.90;;;;;;8396725;28;20006;-77
2022/10/29 09:33:32;;;;;;;;;;;17.20;99.90;;;;;;8398659;28;20050;-77
2022/10/29 09:37:40;;;;;;;;;;;17.20;99.90;;;;;;8390947;28;19931;-77
2022/10/29 09:41:42;;;;;;;;;;;17.30;99.90;;;;;;8374186;28;19938;-77
2022/10/29 09:45:46;;;;;;;;;;;17.30;99.90;;;;;;8389415;28;20376;-77
2022/10/29 09:49:51;;;;;;;;;;;17.30;99.90;;;;;;8382093;28;19954;-77
2022/10/29 09:53:53;;;;;;;;;;;17.30;99.90;;;;;;8388697;28;20463;-77
2022/10/29 09:57:56;;;;;;;;;;;17.30;99.90;;;;;;8391270;28;20302;-77
2022/10/29 10:01:58;;;;;;;;;;;17.30;99.90;;;;;;8389909;28;20012;-77
2022/10/29 10:06:04;;;;;;;;;;;17.30;99.90;;;;;;8396030;28;20450;-77
2022/10/29 10:10:18;;;;;;;;;;;17.40;99.90;;;;;;8394242;28;19950;-77
2022/10/29 10:14:21;;;;;;;;;;;17.40;99.90;;;;;;8378368;28;19924;-77
2022/10/29 10:18:36;;;;;;;;;;;17.50;99.90;;;;;;8395579;28;20330;-77
2022/10/29 10:22:45;;;;;;;;;;;17.80;99.90;;;;;;8385236;28;19994;-77
2022/10/29 10:26:46;;;;;;;;;;;18.20;99.90;;;;;;8379347;28;20475;-77
2022/10/29 10:31:09;;;;;;;;;;;18.60;99.90;;;;;;8373292;28;19929;-76
2022/10/29 10:35:25;;;;;;;;;;;18.70;99.90;;;;;;8380592;28;20409;-77
2022/10/29 10:39:26;;;;;;;;;;;18.70;99.90;;;;;;8386006;28;19943;-77
2022/10/29 10:43:28;;;;;;;;;;;18.80;99.90;;;;;;8392353;28;19939;-77
2022/10/29 10:52:34;;;;;;;;;;;18.90;99.90;;;;;;8383777;28;20394;-77
2022/10/29 10:56:50;;;;;;;;;;;18.90;99.90;;;;;;8368140;28;19948;-77
2022/10/29 11:00:58;;;;;;;;;;;19.00;99.90;;;;;;8356366;28;19942;-77
2022/10/29 11:05:07;;;;;;;;;;;19.10;99.90;;;;;;8351109;28;19932;-77
2022/10/29 11:09:29;;;;;;;;;;;19.20;99.90;;;;;;8369631;28;20422;-77
2022/10/29 11:13:31;;;;;;;;;;;19.30;99.90;;;;;;8370837;28;19950;-77
2022/10/29 11:17:44;;;;;;;;;;;19.70;99.90;;;;;;8356026;28;19939;-77
2022/10/29 11:21:50;;;;;;;;;;;20.20;99.90;;;;;;8357661;28;20461;-78
2022/10/29 11:25:55;;;;;;;;;;;20.60;99.90;;;;;;8360372;28;20302;-76
2022/10/29 11:29:56;;;;;;;;;;;21.40;99.90;;;;;;8346946;28;20260;-75
2022/10/29 11:34:09;;;;;;;;;;;22.20;99.90;;;;;;8360252;28;19944;-75
2022/10/29 11:38:19;;;;;;;;;;;22.80;99.90;;;;;;8358342;28;19954;-75
2022/10/29 11:42:21;;;;;;;;;;;22.90;99.90;;;;;;8361080;28;19936;-75
2022/10/29 11:46:30;;;;;;;;;;;22.50;99.90;;;;;;8363338;28;19933;-75
2022/10/29 11:50:31;;;;;;;;;;;22.20;99.90;;;;;;8377873;28;20007;-75
2022/10/29 11:54:52;;;;;;;;;;;21.80;99.90;;;;;;8371383;28;24531;-75
2022/10/29 11:58:59;;;;;;;;;;;21.50;99.90;;;;;;8373651;28;19932;-75
2022/10/29 12:03:07;;;;;;;;;;;21.50;99.90;;;;;;8365807;28;19929;-75
2022/10/29 12:07:47;;;;;;;;;;;21.50;99.90;;;;;;8365032;28;19924;-75
2022/10/29 12:12:02;;;;;;;;;;;21.60;99.90;;;;;;8308633;28;21950;-75
2022/10/29 12:16:04;;;;;;;;;;;21.50;99.90;;;;;;8345043;28;19935;-75
2022/10/29 12:20:19;;;;;;;;;;;21.50;99.90;;;;;;8371327;28;20303;-76
2022/10/29 12:24:22;;;;;;;;;;;21.60;99.90;;;;;;8365808;28;19925;-75
2022/10/29 12:28:33;;;;;;;;;;;21.80;99.90;;;;;;8361763;28;19935;-74
2022/10/29 12:32:44;;;;;;;;;;;22.20;99.90;;;;;;8379092;28;19932;-73
2022/10/29 12:36:52;;;;;;;;;;;22.40;99.90;;;;;;8360905;28;19975;-75
2022/10/29 12:41:08;;;;;;;;;;;22.60;99.90;;;;;;8368721;28;20384;-74
2022/10/29 12:45:24;;;;;;;;;;;22.50;99.90;;;;;;8378078;28;20020;-75
2022/10/29 12:49:35;;;;;;;;;;;22.40;99.90;;;;;;8360225;28;19928;-75
2022/10/29 12:53:43;;;;;;;;;;;22.30;99.90;;;;;;8376607;28;19929;-75
2022/10/29 12:57:44;;;;;;;;;;;22.20;99.90;;;;;;8372775;28;19970;-75
2022/10/29 13:01:46;;;;;;;;;;;22.20;99.90;;;;;;8373918;28;19935;-75
2022/10/29 13:06:27;;;;;;;;;;;22.20;99.90;;;;;;8370888;28;19928;-75
2022/10/29 13:10:31;;;;;;;;;;;22.20;99.90;;;;;;8373093;28;19966;-75
2022/10/29 13:14:36;;;;;;;;;;;22.40;99.90;;;;;;8375444;28;19925;-75
2022/10/29 13:18:37;;;;;;;;;;;22.50;99.90;;;;;;8373991;28;19928;-75
2022/10/29 13:22:42;;;;;;;;;;;22.60;99.90;;;;;;8370013;28;19925;-75
2022/10/29 13:27:12;;;;;;;;;;;22.70;99.90;;;;;;8374306;28;19935;-75
2022/10/29 13:31:13;;;;;;;;;;;22.70;99.90;;;;;;8358476;28;19925;-75
2022/10/29 13:35:15;;;;;;;;;;;22.90;99.90;;;;;;8369007;28;19929;-75
2022/10/29 13:39:17;;;;;;;;;;;23.00;99.90;;;;;;8374101;28;20455;-75
2022/10/29 13:43:19;;;;;;;;;;;23.20;99.90;;;;;;8385948;28;19935;-75
2022/10/29 13:47:21;;;;;;;;;;;23.20;99.90;;;;;;8362872;28;19974;-75
2022/10/29 13:51:26;;;;;;;;;;;23.20;99.90;;;;;;8368392;28;19928;-75
2022/10/29 13:55:31;;;;;;;;;;;23.20;99.90;;;;;;8371115;28;20018;-76
2022/10/29 13:59:40;;;;;;;;;;;23.30;99.90;;;;;;8361538;28;19924;-75
2022/10/29 14:03:57;;;;;;;;;;;23.30;99.90;;;;;;8375023;28;19971;-75
2022/10/29 14:08:19;;;;;;;;;;;23.20;99.90;;;;;;8363787;28;20398;-75
2022/10/29 14:12:24;;;;;;;;;;;23.10;99.90;;;;;;8363801;28;20754;-75
2022/10/29 14:16:28;;;;;;;;;;;22.90;99.90;;;;;;8359326;28;19928;-75
2022/10/29 14:20:29;;;;;;;;;;;22.80;99.90;;;;;;8370003;28;19956;-75
2022/10/29 14:24:37;;;;;;;;;;;22.70;99.90;;;;;;8364169;28;19933;-75
2022/10/29 14:28:39;;;;;;;;;;;22.60;99.90;;;;;;8359379;28;20458;-75
2022/10/29 14:32:40;;;;;;;;;;;22.60;99.90;;;;;;8367130;28;19994;-75
2022/10/29 14:36:44;;;;;;;;;;;22.60;99.90;;;;;;8367901;28;19925;-75
2022/10/29 14:40:46;;;;;;;;;;;22.50;99.90;;;;;;8360785;28;20376;-76
2022/10/29 14:44:49;;;;;;;;;;;22.50;99.90;;;;;;8370959;28;20380;-76
2022/10/29 14:49:09;;;;;;;;;;;22.40;99.90;;;;;;8370924;28;20023;-76
2022/10/29 14:53:37;;;;;;;;;;;22.30;99.90;;;;;;8350691;28;19937;-76
2022/10/29 14:57:41;;;;;;;;;;;22.20;99.90;;;;;;8354004;28;19939;-76
2022/10/29 15:01:47;;;;;;;;;;;22.10;99.90;;;;;;8357101;28;19931;-76
2022/10/29 15:05:49;;;;;;;;;;;22.00;99.90;;;;;;8359980;28;19986;-75
2022/10/29 15:10:02;;;;;;;;;;;21.90;99.90;;;;;;8372659;28;19924;-75
2022/10/29 15:14:23;;;;;;;;;;;21.80;99.90;;;;;;8369885;28;19924;-76
2022/10/29 15:18:24;;;;;;;;;;;21.70;99.90;;;;;;8372047;28;20414;-76
2022/10/29 15:22:36;;;;;;;;;;;21.70;99.90;;;;;;8350048;28;19924;-75
2022/10/29 15:26:53;;;;;;;;;;;21.60;99.90;;;;;;8377937;28;19935;-76
2022/10/29 15:30:54;;;;;;;;;;;21.50;99.90;;;;;;8370400;28;20028;-75
2022/10/29 15:34:57;;;;;;;;;;;21.50;99.90;;;;;;8356696;28;19987;-76
2022/10/29 15:39:06;;;;;;;;;;;21.40;99.90;;;;;;8366348;28;20015;-76
2022/10/29 15:43:28;;;;;;;;;;;21.40;99.90;;;;;;8386583;28;19931;-76
2022/10/29 15:47:30;;;;;;;;;;;21.30;99.90;;;;;;8356767;28;19925;-76
2022/10/29 15:51:31;;;;;;;;;;;21.20;99.90;;;;;;8349223;28;19998;-76
2022/10/29 15:55:34;;;;;;;;;;;21.20;99.90;;;;;;8380960;28;20015;-76
2022/10/29 15:59:37;;;;;;;;;;;21.10;99.90;;;;;;8365642;28;19925;-75
2022/10/29 16:03:39;;;;;;;;;;;21.10;99.90;;;;;;8346604;28;19929;-76
2022/10/29 16:07:41;;;;;;;;;;;21.00;99.90;;;;;;8370334;28;19935;-76
2022/10/29 16:11:43;;;;;;;;;;;21.00;99.90;;;;;;8357500;28;19932;-76
2022/10/29 16:15:45;;;;;;;;;;;20.90;99.90;;;;;;8368787;28;19940;-75
2022/10/29 16:19:46;;;;;;;;;;;20.80;99.90;;;;;;8364095;28;19933;-76
2022/10/29 16:23:49;;;;;;;;;;;20.70;99.90;;;;;;8357161;28;20267;-76
2022/10/29 16:27:51;;;;;;;;;;;20.60;99.90;;;;;;8364366;28;20454;-76
2022/10/29 16:31:52;;;;;;;;;;;20.60;99.90;;;;;;8364932;28;19947;-76
2022/10/29 16:35:54;;;;;;;;;;;20.50;99.90;;;;;;8351118;28;19929;-76
2022/10/29 16:39:56;;;;;;;;;;;20.50;99.90;;;;;;8367542;28;19932;-76
2022/10/29 16:43:57;;;;;;;;;;;20.50;99.90;;;;;;8366449;28;19925;-75
2022/10/29 16:47:59;;;;;;;;;;;20.40;99.90;;;;;;8366297;28;19928;-75
2022/10/29 16:52:01;;;;;;;;;;;20.40;99.90;;;;;;8369408;28;19925;-76
2022/10/29 16:56:03;;;;;;;;;;;20.40;99.90;;;;;;8369650;28;20364;-76
2022/10/29 17:00:05;;;;;;;;;;;20.30;99.90;;;;;;8367790;28;19929;-76
2022/10/29 17:04:08;;;;;;;;;;;20.30;99.90;;;;;;8367052;28;19932;-76
2022/10/29 17:08:10;;;;;;;;;;;20.30;99.90;;;;;;8366800;28;20411;-75
2022/10/29 17:12:11;;;;;;;;;;;20.30;99.90;;;;;;8365214;28;20364;-76
2022/10/29 17:16:15;;;;;;;;;;;20.20;99.90;;;;;;8368677;28;19925;-76
2022/10/29 17:20:16;;;;;;;;;;;20.20;99.90;;;;;;8363499;28;19932;-76
2022/10/29 17:24:18;;;;;;;;;;;20.20;99.90;;;;;;8361135;28;19935;-76
2022/10/29 17:28:20;;;;;;;;;;;20.20;99.90;;;;;;8366488;28;20388;-75
2022/10/29 17:32:22;;;;;;;;;;;20.10;99.90;;;;;;8355744;28;20303;-75
2022/10/29 17:36:23;;;;;;;;;;;20.10;99.90;;;;;;8369551;28;20125;-76
2022/10/29 17:40:25;;;;;;;;;;;20.10;99.90;;;;;;8362011;28;19940;-75
2022/10/29 17:44:26;;;;;;;;;;;20.00;99.90;;;;;;8367885;28;19935;-76
2022/10/29 17:48:28;;;;;;;;;;;20.00;99.90;;;;;;8351187;28;19951;-75
2022/10/29 17:52:30;;;;;;;;;;;19.90;99.90;;;;;;8351442;28;19935;-76
2022/10/29 17:56:31;;;;;;;;;;;19.90;99.90;;;;;;8375909;28;19925;-75
2022/10/29 18:00:33;;;;;;;;;;;19.90;99.90;;;;;;8364522;28;19932;-76
2022/10/29 18:04:34;;;;;;;;;;;19.80;99.90;;;;;;8352368;28;19924;-75
2022/10/29 18:08:37;;;;;;;;;;;19.80;99.90;;;;;;8374735;28;19931;-76
2022/10/29 18:12:38;;;;;;;;;;;19.70;99.90;;;;;;8362455;28;20318;-76
2022/10/29 18:16:40;;;;;;;;;;;19.70;99.90;;;;;;8368072;28;20121;-76
2022/10/29 18:20:43;;;;;;;;;;;19.70;99.90;;;;;;8365904;28;19934;-76
2022/10/29 18:24:45;;;;;;;;;;;19.70;99.90;;;;;;8364165;28;20024;-76
2022/10/29 18:28:46;;;;;;;;;;;19.60;99.90;;;;;;8380181;28;20014;-76
2022/10/29 18:32:48;;;;;;;;;;;19.60;99.90;;;;;;8361687;28;19928;-76
2022/10/29 18:36:50;;;;;;;;;;;19.50;99.90;;;;;;8367630;28;19933;-76
2022/10/29 18:40:55;;;;;;;;;;;19.50;99.90;;;;;;8344977;28;19940;-76
2022/10/29 18:44:57;;;;;;;;;;;19.40;99.90;;;;;;8362517;28;19925;-75
2022/10/29 18:48:58;;;;;;;;;;;19.40;99.90;;;;;;8363516;28;19928;-76
2022/10/29 18:53:00;;;;;;;;;;;19.40;99.90;;;;;;8369467;28;19939;-76
2022/10/29 18:57:02;;;;;;;;;;;19.30;99.90;;;;;;8367441;28;19929;-76
2022/10/29 19:01:07;;;;;;;;;;;19.30;99.90;;;;;;8358555;28;19924;-75
2022/10/29 19:05:09;;;;;;;;;;;19.20;99.90;;;;;;8364587;28;20335;-75
2022/10/29 19:09:11;;;;;;;;;;;19.20;99.90;;;;;;8361327;28;20406;-76
2022/10/29 19:13:12;;;;;;;;;;;19.10;99.90;;;;;;8364062;28;19925;-75
2022/10/29 19:17:14;;;;;;;;;;;19.10;99.90;;;;;;8365477;28;20023;-75
2022/10/29 19:21:17;;;;;;;;;;;19.00;99.90;;;;;;8364183;28;19931;-75
2022/10/29 19:25:18;;;;;;;;;;;19.00;99.90;;;;;;8341568;28;19931;-76
2022/10/29 19:29:38;;;;;;;;;;;19.00;99.90;;;;;;8363987;28;20019;-75
2022/10/29 19:33:40;;;;;;;;;;;19.00;99.90;;;;;;8361305;28;19971;-75
2022/10/29 19:37:42;;;;;;;;;;;19.00;99.90;;;;;;8363800;28;19936;-75
2022/10/29 19:41:43;;;;;;;;;;;18.90;99.90;;;;;;8378710;28;19928;-76
2022/10/29 19:45:45;;;;;;;;;;;18.90;99.90;;;;;;8362615;28;19929;-76
2022/10/29 19:49:46;;;;;;;;;;;18.90;99.90;;;;;;8358704;28;19929;-76
2022/10/29 19:53:50;;;;;;;;;;;18.90;99.90;;;;;;8358536;28;19931;-75
2022/10/29 19:57:51;;;;;;;;;;;18.80;99.90;;;;;;8350381;28;20299;-75
2022/10/29 20:01:53;;;;;;;;;;;18.80;99.90;;;;;;8350394;28;19925;-76
2022/10/29 20:21:08;;;;;;;;;;;18.80;99.90;;;;;;8376380;28;20288;-75
2022/10/29 20:25:09;;;;;;;;;;;18.70;99.90;;;;;;8376090;28;19936;-75
2022/10/29 20:29:11;;;;;;;;;;;18.70;99.90;;;;;;8385085;28;19925;-76
2022/10/29 20:43:32;;;;;;;;;;;18.60;99.90;;;;;;8371268;28;20402;-76
2022/10/29 20:47:34;;;;;;;;;;;18.60;99.90;;;;;;8368308;28;19931;-75
2022/10/29 20:51:36;;;;;;;;;;;18.60;99.90;;;;;;8383222;28;20032;-76
2022/10/29 20:55:37;;;;;;;;;;;18.60;99.90;;;;;;8363512;28;19954;-75
2022/10/29 20:59:39;;;;;;;;;;;18.50;99.90;;;;;;8369182;28;20332;-75
2022/10/29 21:03:41;;;;;;;;;;;18.50;99.90;;;;;;8401276;28;20383;-76
2022/10/29 21:07:43;;;;;;;;;;;18.40;99.90;;;;;;8404877;28;20019;-76
2022/10/29 21:11:44;;;;;;;;;;;18.40;99.90;;;;;;8422480;28;20302;-75
2022/10/29 21:15:46;;;;;;;;;;;18.40;99.90;;;;;;8408723;28;19927;-76
2022/10/29 21:19:48;;;;;;;;;;;18.30;99.90;;;;;;8420638;28;19924;-79
2022/10/29 21:23:49;;;;;;;;;;;18.20;99.90;;;;;;8413856;28;19924;-76
2022/10/29 21:27:52;;;;;;;;;;;18.10;99.90;;;;;;8404480;28;20014;-75
2022/10/29 21:31:54;;;;;;;;;;;18.00;99.90;;;;;;8407802;28;19963;-76
2022/10/29 21:35:55;;;;;;;;;;;17.90;99.90;;;;;;8403695;28;19928;-75
2022/10/29 21:39:57;;;;;;;;;;;17.80;99.90;;;;;;8413019;28;20023;-75
2022/10/29 21:44:00;;;;;;;;;;;17.80;99.90;;;;;;8414788;28;20308;-75
2022/10/29 21:48:02;;;;;;;;;;;17.60;99.90;;;;;;8400298;28;19986;-75
2022/10/29 21:52:04;;;;;;;;;;;17.60;99.90;;;;;;8405412;28;20008;-76
2022/10/29 21:56:07;;;;;;;;;;;17.50;99.90;;;;;;8396866;28;19932;-76
2022/10/29 22:00:09;;;;;;;;;;;17.40;99.90;;;;;;8400936;28;19967;-76
2022/10/29 22:04:11;;;;;;;;;;;17.30;99.90;;;;;;8407370;28;20306;-75
2022/10/29 22:08:13;;;;;;;;;;;17.30;99.90;;;;;;8401383;28;19930;-76
2022/10/29 22:12:14;;;;;;;;;;;17.20;99.90;;;;;;8403595;28;19947;-75
2022/10/29 22:16:16;;;;;;;;;;;17.10;99.90;;;;;;8401329;28;19970;-76
2022/10/29 22:20:17;;;;;;;;;;;17.10;99.90;;;;;;8403300;28;19984;-76
2022/10/29 22:24:19;;;;;;;;;;;17.00;99.90;;;;;;8422489;28;19928;-76
2022/10/29 22:28:21;;;;;;;;;;;16.90;99.90;;;;;;8419083;28;19985;-75
2022/10/29 22:32:22;;;;;;;;;;;16.80;99.90;;;;;;8415874;28;20409;-76
2022/10/29 22:36:25;;;;;;;;;;;16.80;99.90;;;;;;8390098;28;20290;-75
2022/10/29 22:40:26;;;;;;;;;;;16.80;99.90;;;;;;8410493;28;19975;-76
2022/10/29 22:44:28;;;;;;;;;;;16.70;99.90;;;;;;8409687;28;19939;-76
2022/10/29 22:48:30;;;;;;;;;;;16.60;99.90;;;;;;8411258;28;19927;-75
2022/10/29 22:52:31;;;;;;;;;;;16.60;99.90;;;;;;8416671;28;19928;-76
2022/10/29 22:56:35;;;;;;;;;;;16.60;99.90;;;;;;8394120;28;19928;-76
2022/10/29 23:00:36;;;;;;;;;;;16.50;99.90;;;;;;8408474;28;19946;-76
2022/10/29 23:04:38;;;;;;;;;;;16.40;99.90;;;;;;8396673;28;20012;-76
2022/10/29 23:08:40;;;;;;;;;;;16.30;99.90;;;;;;8409481;28;19996;-76
2022/10/29 23:12:41;;;;;;;;;;;16.30;99.90;;;;;;8409541;28;19924;-76
2022/10/29 23:16:43;;;;;;;;;;;16.20;99.90;;;;;;8399811;28;19924;-76
2022/10/29 23:25:48;;;;;;;;;;;16.10;99.90;;;;;;8404094;28;19963;-75
2022/10/29 23:29:49;;;;;;;;;;;16.00;99.90;;;;;;8384156;28;20350;-76
2022/10/29 23:33:52;;;;;;;;;;;15.90;99.90;;;;;;8401141;28;19970;-76
2022/10/29 23:37:53;;;;;;;;;;;15.80;99.90;;;;;;8403495;28;20291;-76
2022/10/29 23:41:55;;;;;;;;;;;15.80;99.90;;;;;;8393095;28;19932;-76
2022/10/29 23:45:57;;;;;;;;;;;15.70;99.90;;;;;;8398413;28;19931;-76
2022/10/29 23:49:59;;;;;;;;;;;15.70;99.90;;;;;;8408437;28;19928;-76
2022/10/29 23:54:00;;;;;;;;;;;15.60;99.90;;;;;;8393142;28;19924;-76
2022/10/29 23:58:03;;;;;;;;;;;15.60;99.90;;;;;;8411555;28;20258;-76
